Auance, South Dakota
Current Conditions -  °F | °C
As of 11:55 AM on Friday 21 Nov 2014 (Local Time) from KPHP Reporting Station
Broken Clouds Broken Clouds  
Wind Chill: 38°   Ceiling: 11000
Heat Index: 44°   Visibility: 10mi
Dew Point: 28°   Wind: 12mph
Humidity: 53%   Direction: 250°WSW
Pressure: 29.83"   Gusts: NA
Location:  44.8511°N, 102.128°W
Report Text: KPHP 211855Z AUTO 25010KT 10SM BKN110 07/M02 A2983 RMK AO2 SLP122 T00671022 $
Loading
Personal Weather Stations






























Interactive Weather Map New forecast layout! Learn more

10-Day Weather Forecast

Advertisements
Track Severe Weather on mobile